Time;durP1;ratioP1;P1;durP2;ratioP2;P2;SDS_P1;SDS_P2;PMS_P1;PMS_P2;Temp;Humidity;BMP_temperature;BMP_pressure;BME280_temperature;BME280_humidity;BME280_pressure;Samples;Min_cycle;Max_cycle;Signal;HPM_P1;HPM_P2
2024/02/18 00:00:40;;;;;;;19.20;4.90;;;;;;;9.29;100.00;103023.34;5086073;28;20513;-81
2024/02/18 00:03:06;;;;;;;18.27;4.82;;;;;;;9.25;100.00;103031.13;5083759;28;20064;-85
2024/02/18 00:05:33;;;;;;;17.88;4.53;;;;;;;9.21;100.00;103018.63;5086771;28;20119;-81
2024/02/18 00:07:59;;;;;;;19.20;4.93;;;;;;;9.21;100.00;103018.63;5083619;28;20032;-74
2024/02/18 00:10:25;;;;;;;20.10;4.97;;;;;;;9.16;100.00;103019.25;5069611;28;20068;-79
2024/02/18 00:12:50;;;;;;;16.77;4.60;;;;;;;9.16;100.00;103016.59;5085611;28;20052;-71
2024/02/18 00:15:15;;;;;;;16.77;4.50;;;;;;;9.14;100.00;103018.28;5085148;28;20032;-70
2024/02/18 00:17:41;;;;;;;19.10;4.57;;;;;;;9.10;100.00;103022.53;5084069;28;20067;-73
2024/02/18 00:20:06;;;;;;;18.35;4.88;;;;;;;9.11;100.00;103018.16;5068250;28;20039;-76
2024/02/18 00:22:32;;;;;;;18.73;4.68;;;;;;;9.06;100.00;103021.47;5083211;28;20063;-74
2024/02/18 00:24:57;;;;;;;18.48;4.93;;;;;;;9.10;100.00;103018.97;5086074;28;20519;-70
2024/02/18 00:27:22;;;;;;;18.23;4.75;;;;;;;9.06;100.00;103018.84;5083601;28;20086;-73
2024/02/18 00:29:48;;;;;;;19.38;5.13;;;;;;;9.02;100.00;103003.69;5084872;28;20060;-75
2024/02/18 00:32:13;;;;;;;19.60;5.07;;;;;;;9.05;100.00;102998.56;5084866;28;20032;-70
2024/02/18 00:34:38;;;;;;;19.13;5.20;;;;;;;9.06;100.00;103003.00;5083367;28;20063;-71
2024/02/18 00:37:04;;;;;;;19.20;4.97;;;;;;;9.08;100.00;103008.34;5086045;28;20031;-81
2024/02/18 00:39:29;;;;;;;18.30;5.10;;;;;;;9.05;100.00;103006.47;5082698;28;20040;-87
2024/02/18 00:41:55;;;;;;;19.38;5.03;;;;;;;9.03;100.00;103005.53;5085619;28;20529;-87
2024/02/18 00:44:23;;;;;;;18.58;5.10;;;;;;;9.03;100.00;103005.53;5083879;28;20457;-87
2024/02/18 00:46:50;;;;;;;19.35;5.70;;;;;;;8.95;100.00;102998.97;5084290;28;20059;-70
2024/02/18 00:49:15;;;;;;;19.73;5.75;;;;;;;8.96;100.00;103000.78;5084291;28;20016;-77
2024/02/18 00:51:41;;;;;;;19.10;5.78;;;;;;;8.95;100.00;102998.97;5082214;28;20059;-81
2024/02/18 00:54:06;;;;;;;19.88;5.88;;;;;;;9.00;100.00;102986.00;5082590;28;20407;-79
2024/02/18 00:56:31;;;;;;;20.17;6.57;;;;;;;9.01;100.00;102994.00;5085570;28;20056;-70
2024/02/18 00:58:57;;;;;;;19.92;6.40;;;;;;;9.01;100.00;102978.19;5082479;28;20032;-72
2024/02/18 01:01:22;;;;;;;19.85;6.20;;;;;;;9.05;100.00;102981.84;5084608;28;20076;-70
2024/02/18 01:03:48;;;;;;;20.65;6.40;;;;;;;9.02;100.00;102974.69;5084391;28;20036;-70
2024/02/18 01:06:13;;;;;;;21.95;7.18;;;;;;;9.03;100.00;102975.59;5083217;28;20536;-75
2024/02/18 01:08:38;;;;;;;19.58;6.75;;;;;;;9.04;100.00;102978.31;5084998;28;20028;-71
2024/02/18 01:11:04;;;;;;;20.67;6.70;;;;;;;9.05;100.00;102984.47;5082384;28;20032;-73
2024/02/18 01:13:29;;;;;;;20.77;6.80;;;;;;;9.02;100.00;102979.06;5085342;28;20065;-71
2024/02/18 01:15:55;;;;;;;21.55;6.88;;;;;;;9.02;100.00;102973.78;5082713;28;20466;-70
2024/02/18 01:18:20;;;;;;;19.83;7.10;;;;;;;9.02;100.00;102979.97;5083980;28;20166;-70
2024/02/18 01:20:46;;;;;;;21.38;7.28;;;;;;;9.05;100.00;102976.56;5083450;28;20528;-71
2024/02/18 01:23:11;;;;;;;20.50;6.90;;;;;;;9.00;100.00;102976.38;5082489;28;20025;-70
2024/02/18 01:25:37;;;;;;;20.77;7.15;;;;;;;9.03;100.00;102978.25;5084829;28;20035;-70
2024/02/18 01:28:03;;;;;;;19.95;6.78;;;;;;;8.98;100.00;102964.81;5063416;28;20103;-70
2024/02/18 01:30:29;;;;;;;21.80;6.88;;;;;;;9.01;100.00;102969.34;5085044;28;20382;-70
2024/02/18 01:32:54;;;;;;;21.45;7.03;;;;;;;9.05;100.00;102966.91;5082277;28;20035;-72
2024/02/18 01:35:19;;;;;;;21.70;7.00;;;;;;;9.03;100.00;102959.78;5083630;28;20466;-72
2024/02/18 01:37:45;;;;;;;21.35;7.07;;;;;;;8.97;100.00;102965.69;5083785;28;20020;-80
2024/02/18 01:40:11;;;;;;;21.13;6.70;;;;;;;9.00;100.00;102960.53;5064305;28;20064;-75
2024/02/18 01:42:38;;;;;;;20.73;6.80;;;;;;;8.98;100.00;102956.91;5084699;28;20028;-74
2024/02/18 01:45:05;;;;;;;20.70;6.40;;;;;;;8.99;100.00;102955.19;5081571;28;20033;-74
2024/02/18 01:47:30;;;;;;;20.27;6.38;;;;;;;9.01;100.00;102943.88;5081333;28;20036;-76
2024/02/18 01:49:56;;;;;;;20.38;6.30;;;;;;;9.08;100.00;102945.91;5083890;28;20105;-74
2024/02/18 01:52:23;;;;;;;19.38;6.40;;;;;;;9.06;100.00;102938.81;5082570;28;20043;-72
2024/02/18 01:54:49;;;;;;;19.15;6.20;;;;;;;9.06;100.00;102938.81;5082961;28;20036;-71
2024/02/18 01:57:15;;;;;;;21.58;5.70;;;;;;;9.16;100.00;102937.44;5083222;28;20036;-71
2024/02/18 01:59:41;;;;;;;19.13;5.82;;;;;;;9.23;100.00;102936.88;5082139;28;20112;-73
2024/02/18 02:02:07;;;;;;;19.75;5.40;;;;;;;9.24;100.00;102934.31;5084283;28;20032;-71
2024/02/18 02:04:33;;;;;;;18.90;5.32;;;;;;;9.34;100.00;102935.59;5080956;28;20425;-70
2024/02/18 02:07:02;;;;;;;18.52;5.38;;;;;;;9.32;100.00;102932.00;5083429;28;20424;-80
2024/02/18 02:09:29;;;;;;;19.67;5.70;;;;;;;9.31;100.00;102931.94;5081064;28;20028;-74
2024/02/18 02:11:55;;;;;;;19.00;5.10;;;;;;;9.33;100.00;102928.50;5065421;28;20368;-70
2024/02/18 02:14:21;;;;;;;18.23;5.00;;;;;;;9.32;100.00;102932.00;5082321;28;20039;-73
2024/02/18 02:16:46;;;;;;;18.73;4.95;;;;;;;9.38;100.00;102936.66;5082297;28;20033;-71
2024/02/18 02:19:12;;;;;;;15.85;4.47;;;;;;;9.38;100.00;102928.72;5083260;28;20032;-71
2024/02/18 02:21:37;;;;;;;17.88;4.95;;;;;;;9.38;100.00;102926.09;5081128;28;20486;-74
2024/02/18 02:24:02;;;;;;;17.30;4.63;;;;;;;9.39;100.00;102920.88;5084227;28;20035;-79
2024/02/18 02:26:34;;;;;;;17.48;4.18;;;;;;;9.52;100.00;102918.75;5081165;28;20035;-72
2024/02/18 02:29:02;;;;;;;18.80;4.27;;;;;;;9.55;100.00;102913.56;5084377;28;20024;-70
2024/02/18 02:31:28;;;;;;;15.98;4.15;;;;;;;9.49;100.00;102914.22;5080952;28;20020;-71
2024/02/18 02:33:53;;;;;;;16.08;4.03;;;;;;;9.49;100.00;102901.03;5083148;28;20028;-72
2024/02/18 02:36:18;;;;;;;17.38;4.13;;;;;;;9.50;100.00;102905.47;5082278;28;20062;-70
2024/02/18 02:38:44;;;;;;;15.27;3.65;;;;;;;9.57;100.00;102890.81;5081637;28;20027;-70
2024/02/18 02:41:09;;;;;;;15.13;3.80;;;;;;;9.64;100.00;102898.13;5083396;28;20079;-71
2024/02/18 02:43:34;;;;;;;17.38;3.85;;;;;;;9.64;100.00;102895.50;5062787;28;20061;-82
2024/02/18 02:46:00;;;;;;;15.73;3.67;;;;;;;9.69;100.00;102899.22;5083982;28;20028;-87
2024/02/18 02:48:26;;;;;;;13.38;3.30;;;;;;;9.68;100.00;102894.75;5081350;28;20104;-82
2024/02/18 02:50:51;;;;;;;16.95;3.75;;;;;;;9.70;100.00;102886.94;5082708;28;20123;-77
2024/02/18 02:53:17;;;;;;;14.57;3.83;;;;;;;9.72;100.00;102886.13;5082678;28;20028;-70
2024/02/18 02:55:42;;;;;;;16.98;3.50;;;;;;;9.73;100.00;102884.41;5081795;28;20028;-71
2024/02/18 02:58:07;;;;;;;15.38;3.50;;;;;;;9.73;100.00;102873.84;5065690;28;20094;-71
2024/02/18 03:00:33;;;;;;;15.93;3.50;;;;;;;9.76;100.00;102879.25;5080584;28;20112;-71
2024/02/18 03:02:58;;;;;;;13.07;3.30;;;;;;;9.72;100.00;102880.84;5081304;28;20025;-70
2024/02/18 03:05:23;;;;;;;17.25;3.92;;;;;;;9.72;100.00;102874.66;5056373;28;20025;-70
2024/02/18 03:07:49;;;;;;;17.23;4.00;;;;;;;9.80;100.00;102872.31;5083668;28;20058;-87
2024/02/18 03:10:14;;;;;;;15.85;4.00;;;;;;;9.80;100.00;102877.59;5082977;28;20021;-72
2024/02/18 03:12:40;;;;;;;16.45;4.20;;;;;;;9.74;100.00;102873.91;5083515;28;20080;-72
2024/02/18 03:15:05;;;;;;;17.73;4.05;;;;;;;9.82;100.00;102873.31;5080790;28;20028;-73
2024/02/18 03:17:31;;;;;;;16.80;4.43;;;;;;;9.84;100.00;102859.28;5080929;28;20037;-70
2024/02/18 03:19:56;;;;;;;16.33;4.25;;;;;;;9.82;100.00;102860.97;5087714;28;20039;-85
2024/02/18 03:22:23;;;;;;;17.75;4.50;;;;;;;9.76;100.00;102845.78;5089425;28;20035;-85
2024/02/18 03:24:49;;;;;;;18.10;4.60;;;;;;;9.84;100.00;102858.41;5087995;28;20028;-87
2024/02/18 03:27:14;;;;;;;17.85;4.63;;;;;;;9.87;100.00;102854.16;5085381;28;20368;-80
2024/02/18 03:29:40;;;;;;;18.30;4.70;;;;;;;9.86;100.00;102848.78;5089154;28;20035;-84
2024/02/18 03:32:06;;;;;;;17.63;4.60;;;;;;;9.83;100.00;102839.03;5085428;28;20036;-87
2024/02/18 03:34:31;;;;;;;18.17;4.50;;;;;;;9.81;100.00;102837.16;5085672;28;20032;-87
2024/02/18 03:36:57;;;;;;;17.60;4.72;;;;;;;9.88;100.00;102828.63;5070634;28;20016;-80
2024/02/18 03:39:22;;;;;;;17.88;4.80;;;;;;;9.81;100.00;102831.88;5085684;28;20035;-72
2024/02/18 03:41:47;;;;;;;17.23;4.40;;;;;;;9.87;100.00;102826.81;5067743;28;20395;-72
2024/02/18 03:44:13;;;;;;;17.80;4.70;;;;;;;9.83;100.00;102822.25;5087202;28;20038;-72
2024/02/18 03:46:39;;;;;;;17.00;4.30;;;;;;;9.79;100.00;102829.16;5084469;28;20028;-74
2024/02/18 03:49:04;;;;;;;18.80;4.47;;;;;;;9.81;100.00;102827.47;5087443;28;20028;-72
2024/02/18 03:51:29;;;;;;;17.42;4.38;;;;;;;9.71;100.00;102815.66;5084086;28;20155;-70
2024/02/18 03:53:55;;;;;;;19.17;4.53;;;;;;;9.54;100.00;102812.34;5086384;28;20033;-84
2024/02/18 03:56:20;;;;;;;18.48;4.32;;;;;;;9.16;100.00;102818.69;5085441;28;20359;-80
2024/02/18 03:58:45;;;;;;;19.65;5.10;;;;;;;8.82;100.00;102838.38;5084850;28;20569;-71
2024/02/18 04:01:11;;;;;;;18.50;4.55;;;;;;;8.76;100.00;102812.63;5086306;28;20047;-70
2024/02/18 04:03:36;;;;;;;19.33;5.30;;;;;;;8.51;100.00;102808.03;5083376;28;20029;-72
2024/02/18 04:06:02;;;;;;;20.30;5.50;;;;;;;8.29;100.00;102804.41;5083080;28;20036;-82
2024/02/18 04:08:27;;;;;;;18.10;4.60;;;;;;;8.26;100.00;102812.19;5083667;28;20486;-79
2024/02/18 04:10:52;;;;;;;20.90;5.15;;;;;;;8.19;100.00;102810.09;5085626;28;20032;-71
2024/02/18 04:13:17;;;;;;;20.23;5.60;;;;;;;8.06;100.00;102800.72;5085132;28;20028;-73
2024/02/18 04:15:43;;;;;;;20.40;5.50;;;;;;;7.99;100.00;102801.28;5083955;28;20112;-74
2024/02/18 04:18:09;;;;;;;18.98;5.18;;;;;;;7.97;100.00;102792.41;5086508;28;20062;-71
2024/02/18 04:20:34;;;;;;;21.45;5.55;;;;;;;7.94;100.00;102787.91;5083025;28;20428;-72
2024/02/18 04:22:59;;;;;;;20.27;5.50;;;;;;;7.96;100.00;102786.22;5086151;28;20031;-71
2024/02/18 04:25:26;;;;;;;22.02;5.90;;;;;;;7.89;100.00;102789.41;5084252;28;20036;-73
2024/02/18 04:27:51;;;;;;;18.00;5.60;;;;;;;7.87;100.00;102780.56;5084784;28;20070;-73
2024/02/18 04:30:17;;;;;;;20.88;5.78;;;;;;;7.86;100.00;102786.63;5084121;28;20035;-71
2024/02/18 04:32:42;;;;;;;21.70;6.05;;;;;;;7.81;100.00;102773.25;5083615;28;20025;-71
2024/02/18 04:35:08;;;;;;;19.48;5.88;;;;;;;7.81;100.00;102775.00;5086081;28;20075;-71
2024/02/18 04:37:33;;;;;;;20.48;5.63;;;;;;;7.81;100.00;102767.09;5082716;28;20033;-70
2024/02/18 04:39:59;;;;;;;20.20;5.40;;;;;;;7.79;100.00;102768.75;5085841;28;20109;-71
2024/02/18 04:42:24;;;;;;;19.60;5.57;;;;;;;7.77;100.00;102759.91;5083774;28;20043;-73
2024/02/18 04:44:50;;;;;;;19.38;6.03;;;;;;;7.76;100.00;102773.88;5084158;28;20044;-71
2024/02/18 04:47:15;;;;;;;20.45;6.03;;;;;;;7.79;100.00;102763.47;5066908;28;20475;-73
2024/02/18 04:49:41;;;;;;;18.65;5.57;;;;;;;7.74;100.00;102752.75;5082967;28;20025;-71
2024/02/18 04:52:06;;;;;;;21.77;6.20;;;;;;;7.67;100.00;102756.84;5085998;28;20048;-70
2024/02/18 04:54:35;;;;;;;20.20;6.30;;;;;;;7.69;100.00;102756.91;5082390;28;20041;-71
2024/02/18 04:57:01;;;;;;;22.13;6.35;;;;;;;7.68;100.00;102748.09;5085553;28;20031;-71
2024/02/18 04:59:27;;;;;;;19.73;5.93;;;;;;;7.62;100.00;102739.91;5083039;28;20054;-73
2024/02/18 05:01:53;;;;;;;21.70;6.30;;;;;;;7.64;100.00;102748.78;5084073;28;20040;-71
2024/02/18 05:04:18;;;;;;;21.88;6.30;;;;;;;7.60;100.00;102740.66;5084290;28;20443;-78
2024/02/18 05:06:48;;;;;;;20.08;6.43;;;;;;;7.56;100.00;102742.28;5083221;28;20067;-76
2024/02/18 05:09:13;;;;;;;21.85;6.68;;;;;;;7.57;100.00;102740.53;5084413;28;20032;-70
2024/02/18 05:11:39;;;;;;;23.20;6.43;;;;;;;7.54;100.00;102730.75;5082466;28;20111;-74
2024/02/18 05:14:04;;;;;;;20.77;6.18;;;;;;;7.56;100.00;102734.38;5085532;28;20024;-71
2024/02/18 05:16:29;;;;;;;21.58;6.47;;;;;;;7.49;100.00;102717.38;5081943;28;20727;-70
2024/02/18 05:18:55;;;;;;;21.85;6.28;;;;;;;7.49;100.00;102717.38;5084137;28;20036;-70
2024/02/18 05:21:20;;;;;;;19.88;6.05;;;;;;;7.47;100.00;102712.88;5083423;28;20135;-71
2024/02/18 05:23:45;;;;;;;20.75;6.45;;;;;;;7.46;100.00;102724.25;5064922;28;20075;-70
2024/02/18 05:26:11;;;;;;;21.42;6.60;;;;;;;7.46;100.00;102703.19;5084497;28;20032;-71
2024/02/18 05:28:36;;;;;;;24.25;6.78;;;;;;;7.42;100.00;102699.50;5081708;28;20111;-71
2024/02/18 05:31:17;;;;;;;20.77;6.20;;;;;;;7.43;100.00;102705.69;5084725;28;20062;-71
2024/02/18 05:33:43;;;;;;;20.83;6.00;;;;;;;7.40;100.00;102700.28;5082271;28;20040;-71
2024/02/18 05:36:08;;;;;;;22.17;5.75;;;;;;;7.40;100.00;102703.81;5066945;28;20036;-71
2024/02/18 05:38:33;;;;;;;20.85;5.97;;;;;;;7.49;100.00;102690.19;5081711;28;20367;-70
2024/02/18 05:40:59;;;;;;;20.55;6.13;;;;;;;7.40;100.00;102689.75;5084711;28;20036;-72
2024/02/18 05:43:24;;;;;;;21.98;6.07;;;;;;;7.41;100.00;102679.31;5083219;28;20024;-84
2024/02/18 05:45:49;;;;;;;21.52;6.00;;;;;;;7.41;100.00;102681.00;5083889;28;20054;-84
2024/02/18 05:48:15;;;;;;;21.05;6.30;;;;;;;7.36;100.00;102682.56;5083972;28;20035;-71
2024/02/18 05:50:40;;;;;;;20.77;5.72;;;;;;;7.36;100.00;102680.81;5081901;28;20037;-71
2024/02/18 05:53:06;;;;;;;21.48;5.68;;;;;;;7.30;100.00;102676.16;5084794;28;20502;-71
2024/02/18 05:55:31;;;;;;;19.83;5.75;;;;;;;7.30;100.00;102673.53;5081648;28;20025;-70
2024/02/18 05:57:56;;;;;;;22.02;6.13;;;;;;;7.30;100.00;102670.88;5065975;28;20068;-73
2024/02/18 06:00:22;;;;;;;21.58;6.25;;;;;;;7.32;100.00;102665.69;5064334;28;20030;-71
2024/02/18 06:02:47;;;;;;;20.98;6.00;;;;;;;7.33;100.00;102665.78;5082543;28;20036;-71
2024/02/18 06:05:17;;;;;;;20.00;5.28;;;;;;;7.35;100.00;102649.16;5084122;28;20394;-71
2024/02/18 06:07:43;;;;;;;20.83;5.68;;;;;;;7.35;100.00;102650.06;5085342;28;20094;-86
2024/02/18 06:10:09;;;;;;;20.60;5.70;;;;;;;7.33;100.00;102647.34;5080915;28;20475;-72
2024/02/18 06:12:34;;;;;;;20.88;5.97;;;;;;;7.30;100.00;102641.06;5084709;28;20035;-70
2024/02/18 06:14:59;;;;;;;21.13;5.93;;;;;;;7.30;100.00;102639.31;5063380;28;20072;-71
2024/02/18 06:17:25;;;;;;;20.90;5.60;;;;;;;7.28;100.00;102642.69;5083475;28;20059;-71
2024/02/18 06:19:50;;;;;;;20.35;5.30;;;;;;;7.28;100.00;102634.81;5082773;28;20025;-71
2024/02/18 06:22:15;;;;;;;19.58;5.30;;;;;;;7.28;100.00;102633.09;5081814;28;20086;-72
2024/02/18 06:24:41;;;;;;;20.92;5.68;;;;;;;7.27;100.00;102635.66;5084182;28;20055;-75
2024/02/18 06:27:06;;;;;;;18.90;5.15;;;;;;;7.29;100.00;102629.63;5080960;28;20029;-73
2024/02/18 06:29:31;;;;;;;21.58;5.70;;;;;;;7.27;100.00;102619.88;5084008;28;20024;-73
2024/02/18 06:31:57;;;;;;;23.40;5.75;;;;;;;7.24;100.00;102615.38;5063766;28;20112;-72
2024/02/18 06:34:22;;;;;;;21.10;5.38;;;;;;;7.25;100.00;102616.25;5082756;28;20031;-71
2024/02/18 06:36:47;;;;;;;20.77;5.78;;;;;;;7.25;100.00;102617.19;5082788;28;20020;-70
2024/02/18 06:39:13;;;;;;;20.58;5.05;;;;;;;7.26;100.00;102613.69;5081490;28;20028;-71
2024/02/18 06:41:38;;;;;;;19.08;5.60;;;;;;;7.25;100.00;102616.25;5084169;28;20031;-71
2024/02/18 06:44:03;;;;;;;20.95;5.95;;;;;;;7.23;100.00;102607.41;5080598;28;20040;-73
2024/02/18 06:46:29;;;;;;;18.17;5.28;;;;;;;7.21;100.00;102598.53;5083631;28;20224;-74
2024/02/18 06:48:54;;;;;;;20.77;5.60;;;;;;;7.22;100.00;102595.97;5081566;28;20028;-71
2024/02/18 06:51:21;;;;;;;20.40;5.80;;;;;;;7.18;100.00;102599.31;5082224;28;20136;-71
2024/02/18 06:53:46;;;;;;;22.05;6.22;;;;;;;7.20;100.00;102602.91;5084663;28;20090;-71
2024/02/18 06:56:11;;;;;;;20.55;5.82;;;;;;;7.21;100.00;102590.63;5084938;28;20497;-72
2024/02/18 06:58:37;;;;;;;24.15;6.15;;;;;;;7.19;100.00;102585.31;5088481;28;20375;-72
2024/02/18 07:01:02;;;;;;;21.13;6.07;;;;;;;7.15;100.00;102576.38;5084422;28;20064;-71
2024/02/18 07:03:27;;;;;;;20.10;5.97;;;;;;;7.15;100.00;102578.13;5086942;28;20673;-71
2024/02/18 07:05:53;;;;;;;20.70;6.22;;;;;;;7.14;100.00;102577.22;5085961;28;20099;-79
2024/02/18 07:08:18;;;;;;;21.73;6.40;;;;;;;7.12;100.00;102571.00;5085654;28;20052;-70
2024/02/18 07:10:44;;;;;;;21.33;5.93;;;;;;;7.17;100.00;102570.31;5086857;28;20032;-70
2024/02/18 07:13:09;;;;;;;20.20;5.85;;;;;;;7.19;100.00;102574.78;5084537;28;20178;-79
2024/02/18 07:15:34;;;;;;;21.48;6.20;;;;;;;7.09;100.00;102568.22;5087901;28;20035;-70
2024/02/18 07:18:00;;;;;;;18.67;5.72;;;;;;;7.12;100.00;102571.00;5084544;28;20024;-83
2024/02/18 07:20:25;;;;;;;21.02;5.72;;;;;;;7.08;100.00;102565.53;5086242;28;20387;-79
2024/02/18 07:22:50;;;;;;;20.08;6.20;;;;;;;7.07;100.00;102579.50;5085806;28;20081;-73
2024/02/18 07:25:16;;;;;;;20.88;6.80;;;;;;;7.06;100.00;102562.81;5084941;28;20113;-72
2024/02/18 07:27:41;;;;;;;20.25;6.63;;;;;;;7.02;100.00;102565.22;5087106;28;20036;-71
2024/02/18 07:30:07;;;;;;;20.27;6.45;;;;;;;7.04;100.00;102558.31;5083894;28;20029;-75
2024/02/18 07:32:33;;;;;;;22.75;6.50;;;;;;;7.04;100.00;102553.94;5087262;28;20036;-73
2024/02/18 07:34:58;;;;;;;22.85;6.82;;;;;;;7.09;100.00;102546.25;5066303;28;20028;-72
2024/02/18 07:37:23;;;;;;;22.08;7.00;;;;;;;6.98;100.00;102549.31;5085965;28;20463;-82
2024/02/18 07:39:48;;;;;;;21.60;7.25;;;;;;;6.96;100.00;102550.97;5068372;28;20024;-81
2024/02/18 07:42:14;;;;;;;21.30;7.13;;;;;;;6.93;100.00;102536.78;5084318;28;20360;-81
2024/02/18 07:44:48;;;;;;;20.83;7.28;;;;;;;6.98;100.00;102549.31;5086925;28;20064;-77
2024/02/18 07:47:14;;;;;;;22.30;7.00;;;;;;;6.95;100.00;102538.66;5084319;28;20098;-74
2024/02/18 07:49:39;;;;;;;22.35;7.45;;;;;;;6.90;100.00;102540.19;5086830;28;20071;-76
2024/02/18 07:52:05;;;;;;;22.13;7.40;;;;;;;6.90;100.00;102544.50;5083181;28;20044;-74
2024/02/18 07:54:31;;;;;;;24.02;7.45;;;;;;;6.87;100.00;102534.75;5086574;28;20025;-75
2024/02/18 07:56:56;;;;;;;22.38;8.02;;;;;;;6.86;100.00;102532.06;5084307;28;20030;-72
2024/02/18 07:59:21;;;;;;;20.77;7.22;;;;;;;6.91;100.00;102530.56;5085018;28;20569;-78
2024/02/18 08:01:48;;;;;;;21.60;6.68;;;;;;;6.91;100.00;102513.03;5067651;28;20032;-72
2024/02/18 08:04:14;;;;;;;22.60;7.32;;;;;;;6.87;100.00;102524.22;5083403;28;20442;-77
2024/02/18 08:06:40;;;;;;;22.90;7.60;;;;;;;6.83;100.00;102510.88;5067711;28;20115;-79
2024/02/18 08:09:06;;;;;;;21.55;7.70;;;;;;;6.82;100.00;102514.38;5083388;28;20061;-76
2024/02/18 08:11:31;;;;;;;22.88;7.97;;;;;;;6.80;100.00;102512.56;5086144;28;20056;-77
2024/02/18 08:13:57;;;;;;;23.48;7.60;;;;;;;6.78;100.00;102503.69;5083933;28;20032;-71
2024/02/18 08:16:26;;;;;;;21.73;7.47;;;;;;;6.78;100.00;102513.31;5085180;28;20513;-77
2024/02/18 08:18:52;;;;;;;21.60;7.18;;;;;;;6.78;100.00;102497.53;5084776;28;20028;-71
2024/02/18 08:21:18;;;;;;;21.73;7.50;;;;;;;6.80;100.00;102494.16;5083877;28;20494;-76
2024/02/18 08:23:43;;;;;;;22.35;7.63;;;;;;;6.78;100.00;102500.16;5085946;28;20111;-76
2024/02/18 08:26:19;;;;;;;22.60;7.70;;;;;;;6.75;100.00;102500.03;5082863;28;20056;-71
2024/02/18 08:28:45;;;;;;;22.38;7.80;;;;;;;6.75;100.00;102492.13;5083523;28;20415;-71
2024/02/18 08:31:11;;;;;;;22.58;7.88;;;;;;;6.75;100.00;102486.88;5086176;28;20024;-83
2024/02/18 08:33:36;;;;;;;21.98;8.05;;;;;;;6.72;100.00;102492.88;5082609;28;20039;-72
2024/02/18 08:36:02;;;;;;;23.88;8.45;;;;;;;6.71;100.00;102488.44;5085599;28;20032;-72
2024/02/18 08:38:27;;;;;;;22.88;8.00;;;;;;;6.70;100.00;102491.00;5083785;28;20032;-73
2024/02/18 08:40:52;;;;;;;22.42;8.20;;;;;;;6.68;100.00;102480.44;5084194;28;20036;-76
2024/02/18 08:43:18;;;;;;;22.13;7.82;;;;;;;6.70;100.00;102483.13;5084761;28;20050;-74
2024/02/18 08:45:43;;;;;;;22.17;7.90;;;;;;;6.67;100.00;102481.28;5083097;28;20029;-71
2024/02/18 08:48:08;;;;;;;21.17;8.00;;;;;;;6.69;100.00;102473.47;5085795;28;20032;-71
2024/02/18 08:50:34;;;;;;;22.08;8.05;;;;;;;6.69;100.00;102463.84;5082087;28;20048;-71
2024/02/18 08:52:59;;;;;;;20.92;7.85;;;;;;;6.67;100.00;102462.88;5085182;28;20039;-75
2024/02/18 08:55:24;;;;;;;23.35;8.50;;;;;;;6.67;100.00;102467.22;5083805;28;20555;-74
2024/02/18 08:57:50;;;;;;;22.83;8.00;;;;;;;6.68;100.00;102464.66;5083795;28;20431;-76
2024/02/18 09:00:19;;;;;;;24.15;8.60;;;;;;;6.67;100.00;102475.09;5059036;28;20059;-71
2024/02/18 09:02:44;;;;;;;23.27;7.78;;;;;;;6.67;100.00;102456.72;5082696;28;20033;-76
2024/02/18 09:05:10;;;;;;;22.65;7.75;;;;;;;6.66;100.00;102462.81;5085620;28;20038;-82
2024/02/18 09:07:35;;;;;;;24.05;8.23;;;;;;;6.69;100.00;102452.44;5082073;28;20111;-80
2024/02/18 09:10:00;;;;;;;23.38;7.88;;;;;;;6.66;100.00;102442.69;5066755;28;20482;-78
2024/02/18 09:12:27;;;;;;;23.27;7.90;;;;;;;6.65;100.00;102427.72;5083626;28;20471;-71
2024/02/18 09:14:52;;;;;;;22.77;8.32;;;;;;;6.63;100.00;102434.66;5083564;28;20024;-73
2024/02/18 09:17:18;;;;;;;22.73;8.00;;;;;;;6.63;100.00;102425.03;5083671;28;20073;-73
2024/02/18 09:19:46;;;;;;;23.00;8.77;;;;;;;6.65;100.00;102427.72;5082306;28;20021;-74
2024/02/18 09:22:12;;;;;;;25.10;8.90;;;;;;;6.63;100.00;102418.88;5085318;28;20039;-79
2024/02/18 09:24:38;;;;;;;22.70;8.27;;;;;;;6.62;100.00;102428.47;5082195;28;20380;-79
2024/02/18 09:27:04;;;;;;;21.75;8.18;;;;;;;6.62;100.00;102415.34;5086666;28;20036;-79
2024/02/18 09:29:29;;;;;;;20.10;7.32;;;;;;;6.68;100.00;102417.34;5084921;28;20078;-78
2024/02/18 09:31:55;;;;;;;21.85;7.65;;;;;;;6.62;100.00;102425.84;5083162;28;20107;-80
2024/02/18 09:34:20;;;;;;;23.73;8.15;;;;;;;6.84;100.00;102405.81;5083780;28;20067;-79
2024/02/18 09:36:46;;;;;;;23.85;8.35;;;;;;;6.90;100.00;102410.44;5084736;28;20536;-78
2024/02/18 09:39:11;;;;;;;23.45;8.52;;;;;;;6.93;100.00;102397.41;5064651;28;20463;-79
2024/02/18 09:41:38;;;;;;;22.20;8.18;;;;;;;6.94;100.00;102409.75;5086407;28;20024;-79
2024/02/18 09:44:07;;;;;;;22.02;8.30;;;;;;;6.90;100.00;102403.47;5082739;28;20021;-80
2024/02/18 09:46:36;;;;;;;23.33;8.25;;;;;;;6.91;100.00;102399.09;5085504;28;20036;-79
2024/02/18 09:49:05;;;;;;;21.55;7.88;;;;;;;6.91;100.00;102381.59;5082702;28;20088;-79
2024/02/18 09:51:32;;;;;;;21.60;7.45;;;;;;;6.90;100.00;102386.78;5081783;28;20098;-79
2024/02/18 09:53:58;;;;;;;23.83;8.45;;;;;;;6.90;100.00;102390.31;5084069;28;20426;-73
2024/02/18 09:56:24;;;;;;;22.38;7.90;;;;;;;6.93;100.00;102387.81;5083196;28;20107;-71
2024/02/18 09:58:49;;;;;;;23.45;7.40;;;;;;;6.95;100.00;102377.38;5082520;28;20024;-71
2024/02/18 10:01:20;;;;;;;20.95;7.28;;;;;;;6.77;100.00;102359.03;5065888;28;20082;-71
2024/02/18 10:03:46;;;;;;;22.15;6.95;;;;;;;6.98;100.00;102373.13;5082158;28;20033;-71
2024/02/18 10:06:11;;;;;;;21.42;6.95;;;;;;;6.97;100.00;102373.06;5084406;28;20047;-71
2024/02/18 10:08:51;;;;;;;22.45;6.90;;;;;;;6.97;100.00;102355.59;5063327;28;20060;-71
2024/02/18 10:11:21;;;;;;;21.95;7.40;;;;;;;7.00;100.00;102346.00;5081762;28;20062;-71
2024/02/18 10:13:47;;;;;;;18.92;6.00;;;;;;;7.02;100.00;102341.72;5083841;28;20032;-73
2024/02/18 10:16:14;;;;;;;21.30;6.70;;;;;;;6.97;100.00;102326.66;5063664;28;20024;-71
2024/02/18 10:18:42;;;;;;;21.13;6.93;;;;;;;7.01;100.00;102314.53;5084642;28;20020;-71
2024/02/18 10:21:08;;;;;;;21.92;6.30;;;;;;;7.00;100.00;102322.34;5062948;28;20033;-78
2024/02/18 10:23:33;;;;;;;21.65;6.47;;;;;;;6.94;100.00;102307.22;5065847;28;20028;-70
2024/02/18 10:25:59;;;;;;;18.42;6.20;;;;;;;6.96;100.00;102316.03;5081723;28;20085;-74
2024/02/18 10:28:24;;;;;;;20.88;6.28;;;;;;;6.98;100.00;102309.13;5081980;28;20024;-78
2024/02/18 10:30:50;;;;;;;21.10;6.80;;;;;;;6.99;100.00;102308.31;5082917;28;20032;-79
2024/02/18 10:33:15;;;;;;;19.45;5.97;;;;;;;7.03;100.00;102304.94;5081184;28;20060;-78
2024/02/18 10:35:43;;;;;;;18.20;5.72;;;;;;;7.02;100.00;102316.34;5084234;28;20499;-75
2024/02/18 10:38:13;;;;;;;21.85;6.63;;;;;;;7.05;100.00;102318.16;5080719;28;20044;-79
2024/02/18 10:40:47;;;;;;;21.80;6.28;;;;;;;7.08;100.00;102307.81;5080661;28;20380;-79
2024/02/18 10:43:18;;;;;;;20.92;6.72;;;;;;;7.12;100.00;102304.44;5066897;28;20020;-75
2024/02/18 10:45:45;;;;;;;20.10;6.00;;;;;;;7.11;100.00;102306.19;5063168;28;20024;-77
2024/02/18 10:48:14;;;;;;;19.33;5.97;;;;;;;7.04;100.00;102292.72;5083908;28;20028;-72
2024/02/18 10:50:46;;;;;;;20.88;6.03;;;;;;;7.10;100.00;102287.72;5080398;28;20579;-72
2024/02/18 10:53:34;;;;;;;19.60;6.00;;;;;;;7.17;100.00;102279.25;5080686;28;20021;-71
2024/02/18 10:56:08;;;;;;;21.15;6.20;;;;;;;7.21;100.00;102277.63;5081620;28;20034;-72
2024/02/18 10:59:03;;;;;;;19.70;5.75;;;;;;;7.27;100.00;102275.28;5083654;28;20032;-71
2024/02/18 11:01:34;;;;;;;19.45;5.38;;;;;;;7.20;100.00;102279.38;5065016;28;20036;-79
2024/02/18 11:04:02;;;;;;;20.15;5.72;;;;;;;7.22;100.00;102264.53;5081629;28;20032;-77
2024/02/18 11:06:28;;;;;;;18.52;5.50;;;;;;;7.24;100.00;102251.47;5082759;28;20094;-80
2024/02/18 11:08:54;;;;;;;18.92;5.70;;;;;;;7.26;100.00;102250.69;5082248;28;20107;-72
2024/02/18 11:11:21;;;;;;;19.92;5.60;;;;;;;7.26;100.00;102244.53;5081287;28;20024;-71